This is the latest recevied weather packets stored in our database for station/object GW1598. If no packets are shown the sender has not sent any weather packets the latest 10 day(s).
| Time | Temp. | Humidity | Pressure | Rain* | Wind** | Luminosity | Snow |
|---|---|---|---|---|---|---|---|
| 1777358003 | 13.33° C | 90% | 1008.1 hPa | 8.64 mm | - | - | - |
| 1777349561 | 21.11° C | 46% | 1010.1 hPa | 0.25 mm | - | - | - |
| 1777348489 | 21.67° C | 46% | 1010.1 hPa | 0.25 mm | - | - | - |
| 1777347395 | 21.67° C | 46% | 1010.1 hPa | 0.25 mm | - | - | - |
| 1777346688 | 22.22° C | 45% | 1009.8 hPa | 0.25 mm | - | - | - |
| 1777343791 | 22.78° C | 43% | 1010.1 hPa | 0.25 mm | - | - | - |
| 1777340930 | 21.11° C | 49% | 1009.8 hPa | 0.25 mm | - | - | - |
| 1777340547 | 20.56° C | 58% | 1009.8 hPa | 0.25 mm | - | - | - |
| 1777340207 | 20.56° C | 58% | 1009.8 hPa | 0.25 mm | - | - | - |
| 1777337298 | 20° C | 71% | 1009.1 hPa | 0.25 mm | - | - | - |
| 1777335889 | 21.11° C | 64% | 1009.1 hPa | 0.25 mm | - | - | - |
| 1777332627 | 23.33° C | 55% | 1009.4 hPa | 0.25 mm | - | - | - |
| 1777330491 | 25° C | 52% | 1009.4 hPa | 0.25 mm | - | - | - |
| 1777326860 | 26.67° C | 38% | 1010.1 hPa | 0.25 mm | - | - | - |
| 1777326170 | 26.67° C | 37% | 1010.4 hPa | 0.25 mm | - | - | - |
| 1777322919 | 26.67° C | 38% | 1010.4 hPa | 0.25 mm | - | - | - |
| 1777320052 | 26.67° C | 38% | 1010.8 hPa | 0.25 mm | - | - | - |
| 1777318247 | 26.11° C | 43% | 1011.1 hPa | 0.25 mm | - | - | - |
| 1777314287 | 24.44° C | 48% | 1012.8 hPa | 0.25 mm | - | - | - |
| 1777313213 | 24.44° C | 48% | 1012.8 hPa | 0.25 mm | - | - | - |
| 1777297734 | 14.44° C | 80% | 1014.5 hPa | 0.25 mm | - | - | - |
| 1777297359 | 13.33° C | 83% | 1014.9 hPa | 0.25 mm | - | - | - |
| 1777296286 | 12.78° C | 87% | 1014.5 hPa | 0.25 mm | - | - | - |
| 1777267126 | 8.33° C | 96% | 1013.8 hPa | 0 mm | - | - | - |
| 1777266733 | 8.89° C | 96% | 1013.8 hPa | 0 mm | - | - | - |
* Rain since midnight (hover to see other rain measurements)
** Current wind speed in m/s (hover to see current wind gust speed)